Time;durP1;ratioP1;P1;durP2;ratioP2;P2;SDS_P1;SDS_P2;PMS_P1;PMS_P2;Temp;Humidity;BMP_temperature;BMP_pressure;BME280_temperature;BME280_humidity;BME280_pressure;Samples;Min_cycle;Max_cycle;Signal;HPM_P1;HPM_P2
2022/09/26 00:01:57;;;;;;;28.93;9.97;;;;;;;40.22;36.57;101074.75;5051224;28;20472;-72
2022/09/26 00:04:28;;;;;;;15.83;6.90;;;;;;;41.08;35.26;101078.66;5051126;28;20453;-72
2022/09/26 00:06:55;;;;;;;35.17;9.63;;;;;;;41.11;34.74;101074.47;5051144;28;20422;-71
2022/09/26 00:09:24;;;;;;;22.30;8.70;;;;;;;41.12;35.00;101068.69;5051074;28;20442;-72
2022/09/26 00:11:50;;;;;;;24.90;9.67;;;;;;;41.14;35.01;101061.03;5051057;28;20612;-72
2022/09/26 00:14:23;;;;;;;20.13;10.37;;;;;;;41.42;34.84;101049.75;5051089;28;20419;-72
2022/09/26 00:16:50;;;;;;;18.07;8.63;;;;;;;40.98;35.23;101051.78;5050958;28;20892;-72
2022/09/26 00:19:16;;;;;;;17.97;6.07;;;;;;;40.99;35.11;101047.94;5051100;28;20461;-71
2022/09/26 00:21:42;;;;;;;19.93;9.30;;;;;;;41.39;34.51;101048.50;5050798;28;20431;-71
2022/09/26 00:24:09;;;;;;;25.77;10.73;;;;;;;41.18;34.98;101044.84;5052594;28;20415;-72
2022/09/26 00:26:35;;;;;;;24.90;7.97;;;;;;;40.75;35.37;101038.31;5050942;28;20443;-70
2022/09/26 00:29:06;;;;;;;16.90;8.10;;;;;;;40.84;35.21;101042.97;5050979;28;20422;-70
2022/09/26 00:31:35;;;;;;;25.53;10.17;;;;;;;41.17;34.73;101043.25;5052475;28;20446;-70
2022/09/26 00:34:02;;;;;;;19.17;8.83;;;;;;;41.19;34.48;101041.81;5050798;28;20444;-70
2022/09/26 00:36:28;;;;;;;16.83;8.07;;;;;;;41.15;34.62;101037.34;5050725;28;20996;-70
2022/09/26 00:38:54;;;;;;;18.70;8.67;;;;;;;40.92;34.96;101034.03;5050983;28;20454;-71
2022/09/26 00:41:21;;;;;;;23.63;9.73;;;;;;;41.04;34.93;101036.88;5050485;28;20502;-71
2022/09/26 00:43:51;;;;;;;23.07;9.00;;;;;;;40.33;36.03;101023.63;5052412;28;20462;-70
2022/09/26 00:46:29;;;;;;;24.33;9.97;;;;;;;40.43;35.75;101014.31;5054447;28;20955;-70
2022/09/26 00:49:26;;;;;;;24.23;8.87;;;;;;;40.89;35.14;100999.28;5054552;28;20924;-71
2022/09/26 00:51:59;;;;;;;20.80;8.30;;;;;;;41.02;35.05;100998.31;5053712;28;20422;-70
2022/09/26 00:54:28;;;;;;;28.83;9.40;;;;;;;41.07;34.73;100979.91;5054245;28;20422;-70
2022/09/26 00:57:03;;;;;;;23.87;8.93;;;;;;;41.04;34.93;100974.28;5054322;28;20414;-70
2022/09/26 00:59:36;;;;;;;15.50;8.20;;;;;;;41.06;35.11;100974.75;5055907;28;20411;-70
2022/09/26 01:02:03;;;;;;;17.73;9.90;;;;;;;41.08;34.99;100967.09;5054297;28;20506;-70
2022/09/26 01:04:32;;;;;;;28.60;11.33;;;;;;;40.81;35.84;100979.13;5054177;28;20424;-70
2022/09/26 01:07:04;;;;;;;20.83;8.77;;;;;;;40.65;35.82;100967.97;5055501;28;20441;-70
2022/09/26 01:09:32;;;;;;;24.97;9.67;;;;;;;40.79;35.67;100960.41;5055651;28;20932;-70
2022/09/26 01:12:01;;;;;;;26.20;9.93;;;;;;;40.62;35.57;100952.28;5055718;28;20735;-70
2022/09/26 01:14:27;;;;;;;21.40;8.30;;;;;;;40.90;35.22;100939.13;5055169;28;20399;-70
2022/09/26 01:16:54;;;;;;;13.60;8.03;;;;;;;40.98;35.27;100941.00;5054021;28;20411;-71
2022/09/26 01:19:29;;;;;;;27.30;10.20;;;;;;;40.77;35.85;100938.19;5053910;28;20419;-70
2022/09/26 01:22:19;;;;;;;20.77;10.40;;;;;;;40.53;36.12;100932.47;5053950;28;20425;-70
2022/09/26 01:24:45;;;;;;;26.80;12.20;;;;;;;40.70;35.41;100927.00;5027136;28;20426;-70
2022/09/26 01:27:51;;;;;;;20.30;11.70;;;;;;;40.74;35.14;100922.50;5055376;28;20415;-70
2022/09/26 01:30:25;;;;;;;18.40;8.87;;;;;;;41.06;35.25;100932.00;5053814;28;20464;-70
2022/09/26 01:33:32;;;;;;;19.40;10.37;;;;;;;40.71;35.27;100923.16;5053515;28;20493;-70
2022/09/26 01:36:21;;;;;;;19.00;7.73;;;;;;;41.03;35.17;100926.44;4984798;28;20544;-70
2022/09/26 01:38:56;;;;;;;20.00;8.33;;;;;;;40.69;35.57;100914.50;5053636;28;20410;-71
2022/09/26 01:41:31;;;;;;;32.60;9.60;;;;;;;40.66;35.47;100923.31;5053569;28;20474;-70
2022/09/26 01:44:22;;;;;;;16.77;7.73;;;;;;;40.58;36.20;100910.56;5054637;28;20395;-70
2022/09/26 01:47:02;;;;;;;17.77;7.37;;;;;;;40.98;34.91;100916.53;5053525;28;20485;-71
2022/09/26 01:49:59;;;;;;;21.80;9.27;;;;;;;41.02;35.28;100916.69;5053442;28;20480;-70
2022/09/26 01:53:06;;;;;;;22.53;9.73;;;;;;;40.79;35.39;100914.16;5053319;28;20409;-70
2022/09/26 01:55:40;;;;;;;18.87;8.13;;;;;;;40.74;35.70;100908.91;4973483;28;20486;-70
2022/09/26 01:58:11;;;;;;;19.23;7.80;;;;;;;40.98;35.00;100905.66;4957491;28;20426;-70
2022/09/26 02:00:39;;;;;;;32.30;10.40;;;;;;;41.04;35.04;100908.97;5025302;28;20447;-70
2022/09/26 02:03:11;;;;;;;16.03;8.10;;;;;;;40.96;34.85;100918.78;5053113;28;20865;-71
2022/09/26 02:05:50;;;;;;;14.67;8.37;;;;;;;40.81;35.48;100917.34;5052960;28;20980;-72
2022/09/26 02:08:27;;;;;;;25.73;9.20;;;;;;;40.77;35.03;100913.69;5053105;28;20415;-72
2022/09/26 02:11:10;;;;;;;14.90;8.07;;;;;;;40.94;35.13;100923.72;5053187;28;20875;-71
2022/09/26 02:14:02;;;;;;;13.73;7.50;;;;;;;41.14;34.41;100924.97;5054403;28;20984;-70
2022/09/26 02:16:39;;;;;;;24.40;9.43;;;;;;;40.67;35.38;100938.50;5052758;28;20549;-70
2022/09/26 02:19:05;;;;;;;28.77;9.27;;;;;;;40.59;35.15;100931.19;5052822;28;20410;-70
2022/09/26 02:21:31;;;;;;;24.33;8.77;;;;;;;40.55;35.46;100931.03;5052903;28;20444;-70
2022/09/26 02:23:57;;;;;;;23.57;12.77;;;;;;;40.96;34.61;100934.31;5054303;28;20395;-70
2022/09/26 02:26:23;;;;;;;21.43;9.07;;;;;;;40.63;35.32;100926.69;5054295;28;20407;-70
2022/09/26 02:28:49;;;;;;;22.03;7.70;;;;;;;40.53;35.71;100927.84;5052615;28;20696;-70
2022/09/26 02:31:21;;;;;;;22.80;9.40;;;;;;;40.60;35.19;100921.09;5054353;28;20915;-70
2022/09/26 02:33:51;;;;;;;17.40;9.20;;;;;;;40.83;35.21;100914.31;5052610;28;20454;-70
2022/09/26 02:36:22;;;;;;;20.27;9.00;;;;;;;40.88;34.97;100911.41;5052487;28;20470;-70
2022/09/26 02:38:48;;;;;;;13.30;8.13;;;;;;;40.85;35.24;100911.28;5052525;28;20442;-70
2022/09/26 02:41:27;;;;;;;19.10;8.97;;;;;;;40.87;35.27;100911.72;5052325;28;20981;-70
2022/09/26 02:44:31;;;;;;;23.53;8.60;;;;;;;40.95;35.47;100911.75;5052426;28;20426;-71
2022/09/26 02:47:40;;;;;;;18.67;8.67;;;;;;;40.88;35.29;100910.59;5053948;28;20423;-70
2022/09/26 02:50:12;;;;;;;22.37;8.93;;;;;;;40.69;35.43;100905.56;5052293;28;20418;-70
2022/09/26 02:52:47;;;;;;;25.23;8.30;;;;;;;40.90;35.59;100911.09;5052473;28;20471;-70
2022/09/26 02:55:39;;;;;;;22.20;9.63;;;;;;;41.05;35.70;100921.47;5051877;28;20462;-70
2022/09/26 02:58:17;;;;;;;25.37;10.17;;;;;;;40.99;35.50;100920.03;5052160;28;20434;-70
2022/09/26 03:00:50;;;;;;;21.33;9.03;;;;;;;40.86;35.50;100913.66;5052138;28;20426;-70
2022/09/26 03:03:37;;;;;;;20.33;7.30;;;;;;;40.41;36.39;100897.75;5051954;28;20868;-70
2022/09/26 03:06:07;;;;;;;25.63;10.17;;;;;;;41.12;35.02;100897.25;5051120;28;20418;-71
2022/09/26 03:08:40;;;;;;;24.40;9.13;;;;;;;40.55;35.80;100914.72;5051746;28;20506;-70
2022/09/26 03:11:09;;;;;;;18.30;8.33;;;;;;;40.38;35.78;100908.47;5051859;28;20806;-71
2022/09/26 03:13:37;;;;;;;30.27;14.97;;;;;;;40.33;35.84;100917.59;5051806;28;20929;-70
2022/09/26 03:16:05;;;;;;;17.93;7.80;;;;;;;40.31;36.05;100902.72;5051680;28;20458;-70
2022/09/26 03:18:39;;;;;;;28.30;11.03;;;;;;;39.69;37.00;100909.25;5051989;28;20446;-70
2022/09/26 03:21:05;;;;;;;15.67;8.13;;;;;;;40.29;35.92;100925.59;5051710;28;20426;-70
2022/09/26 03:23:32;;;;;;;19.03;7.90;;;;;;;39.86;36.82;100906.56;5053195;28;20565;-71
2022/09/26 03:26:00;;;;;;;19.43;6.77;;;;;;;40.21;36.49;100903.88;5051482;28;20422;-70
2022/09/26 03:28:27;;;;;;;21.90;9.03;;;;;;;39.91;36.68;100911.03;5053316;28;20920;-70
2022/09/26 03:30:53;;;;;;;21.77;8.10;;;;;;;39.90;36.83;100907.53;5051501;28;20423;-70
2022/09/26 03:33:20;;;;;;;29.47;8.63;;;;;;;39.72;36.87;100909.41;5053329;28;20403;-71
2022/09/26 03:35:46;;;;;;;18.60;7.47;;;;;;;39.80;37.08;100896.97;5051371;28;20470;-70
2022/09/26 03:38:12;;;;;;;29.57;9.83;;;;;;;40.15;36.78;100903.22;5051379;28;20422;-71
2022/09/26 03:40:40;;;;;;;25.80;9.47;;;;;;;40.59;36.26;100903.19;5051277;28;21072;-70
2022/09/26 03:43:07;;;;;;;30.80;9.70;;;;;;;39.83;37.35;100909.88;5052878;28;20817;-70
2022/09/26 03:45:35;;;;;;;26.33;10.07;;;;;;;40.21;36.89;100903.88;5051216;28;20418;-70
2022/09/26 03:48:02;;;;;;;23.30;7.50;;;;;;;40.21;36.66;100906.59;5034764;28;20513;-71
2022/09/26 03:50:28;;;;;;;25.03;11.10;;;;;;;40.32;36.88;100915.19;5051184;28;20500;-70
2022/09/26 03:52:54;;;;;;;24.27;11.50;;;;;;;40.79;35.70;100908.72;5051309;28;20457;-70
2022/09/26 03:55:20;;;;;;;24.73;8.37;;;;;;;40.74;36.09;100906.19;5050968;28;20478;-70
2022/09/26 03:57:46;;;;;;;20.60;7.90;;;;;;;40.71;35.90;100911.47;5052925;28;20881;-70
2022/09/26 04:00:12;;;;;;;16.50;9.77;;;;;;;40.13;36.44;100923.69;5051105;28;21015;-71
2022/09/26 04:02:38;;;;;;;33.17;8.23;;;;;;;40.45;36.50;100911.50;5051119;28;20433;-72
2022/09/26 04:05:04;;;;;;;19.57;8.83;;;;;;;40.55;36.07;100906.56;5051676;28;20419;-72
2022/09/26 04:07:30;;;;;;;33.10;12.90;;;;;;;40.26;36.66;100907.19;5051036;28;20508;-72
2022/09/26 04:09:56;;;;;;;27.50;8.20;;;;;;;40.51;36.54;100910.22;5052667;28;20525;-72
2022/09/26 04:12:22;;;;;;;28.90;10.73;;;;;;;40.25;36.74;100907.53;5051639;28;20423;-72
2022/09/26 04:14:49;;;;;;;27.93;13.17;;;;;;;40.06;37.05;100907.06;5050915;28;20430;-72
2022/09/26 04:17:15;;;;;;;24.50;9.00;;;;;;;39.76;37.76;100910.34;5053578;28;20460;-72
2022/09/26 04:19:41;;;;;;;22.10;8.73;;;;;;;39.25;38.11;100911.03;5056651;28;20460;-69
2022/09/26 04:22:07;;;;;;;23.23;9.17;;;;;;;39.72;37.24;100919.47;5055099;28;20422;-70
2022/09/26 04:24:33;;;;;;;19.30;8.20;;;;;;;39.80;37.08;100918.69;5055555;28;20402;-71
2022/09/26 04:26:59;;;;;;;16.30;8.53;;;;;;;39.98;36.90;100906.72;5054902;28;20422;-70
2022/09/26 04:29:26;;;;;;;23.07;10.07;;;;;;;40.29;36.34;100927.50;5054943;28;20943;-71
2022/09/26 04:31:52;;;;;;;28.70;11.87;;;;;;;40.29;36.25;100912.00;5054836;28;20929;-70
2022/09/26 04:34:22;;;;;;;25.07;10.80;;;;;;;39.94;36.86;100916.59;5054865;28;20432;-71
2022/09/26 04:36:50;;;;;;;18.50;8.93;;;;;;;40.10;37.00;100916.97;5054792;28;20462;-70
2022/09/26 04:39:16;;;;;;;21.07;9.50;;;;;;;40.11;37.04;100915.84;5056329;28;20402;-70
2022/09/26 04:41:42;;;;;;;24.13;10.33;;;;;;;40.53;35.85;100913.44;5054577;28;20466;-72
2022/09/26 04:44:09;;;;;;;24.00;11.73;;;;;;;40.79;35.63;100922.31;5054613;28;20419;-71
2022/09/26 04:46:35;;;;;;;19.57;8.83;;;;;;;40.33;36.37;100931.19;5054537;28;20415;-72
2022/09/26 04:49:02;;;;;;;19.40;9.40;;;;;;;39.95;37.13;100933.72;5055146;28;20437;-70
2022/09/26 04:51:30;;;;;;;42.07;11.17;;;;;;;39.84;36.90;100937.84;5054407;28;20406;-70
2022/09/26 04:53:57;;;;;;;19.13;8.87;;;;;;;40.05;36.75;100946.22;5054528;28;20423;-71
2022/09/26 04:56:25;;;;;;;25.93;9.40;;;;;;;39.78;37.21;100947.25;5054204;28;20443;-72
2022/09/26 04:58:55;;;;;;;18.27;8.47;;;;;;;40.27;36.34;100948.78;5054407;28;20422;-72
2022/09/26 05:01:21;;;;;;;22.10;9.77;;;;;;;40.21;36.29;100945.44;5054483;28;20429;-70
2022/09/26 05:03:47;;;;;;;18.57;8.73;;;;;;;39.86;36.92;100960.06;5054281;28;20419;-70
2022/09/26 05:06:16;;;;;;;27.07;9.93;;;;;;;39.67;37.42;100957.66;5054481;28;20411;-70
2022/09/26 05:08:48;;;;;;;21.23;9.50;;;;;;;40.58;35.87;100956.78;5054084;28;20411;-71
2022/09/26 05:11:16;;;;;;;14.57;7.93;;;;;;;40.15;36.04;100964.94;5055828;28;20403;-70
2022/09/26 05:13:43;;;;;;;14.30;10.57;;;;;;;40.11;36.18;100969.41;5054065;28;20987;-70
2022/09/26 05:16:10;;;;;;;17.33;9.07;;;;;;;40.41;35.67;100967.66;5054292;28;20469;-70
2022/09/26 05:18:38;;;;;;;23.33;10.47;;;;;;;40.26;36.06;100972.41;5055485;28;20507;-70
2022/09/26 05:21:06;;;;;;;18.67;9.00;;;;;;;40.05;36.37;100971.47;5055343;28;20403;-70
2022/09/26 05:26:31;;;;;;;31.73;9.83;;;;;;;40.50;35.65;100979.31;5055408;28;20422;-70
2022/09/26 05:29:03;;;;;;;21.93;10.97;;;;;;;40.88;35.04;101000.38;5052766;28;20485;-70
2022/09/26 05:31:33;;;;;;;22.17;10.27;;;;;;;40.55;35.21;100984.59;5053745;28;20476;-70
2022/09/26 05:33:59;;;;;;;22.67;9.43;;;;;;;40.66;34.93;100996.75;5053533;28;20859;-70
2022/09/26 05:36:27;;;;;;;21.80;8.97;;;;;;;40.69;35.32;101004.25;5044199;28;20845;-71
2022/09/26 05:38:53;;;;;;;19.93;9.40;;;;;;;40.32;35.64;101005.69;5042765;28;20443;-71
2022/09/26 05:41:19;;;;;;;17.90;10.57;;;;;;;39.68;36.83;101002.69;5053274;28;20540;-69
2022/09/26 05:43:46;;;;;;;22.20;9.43;;;;;;;39.95;36.34;101009.75;5053556;28;20518;-69
2022/09/26 05:46:13;;;;;;;14.87;8.53;;;;;;;40.33;35.59;101022.78;5053320;28;20807;-70
2022/09/26 05:48:40;;;;;;;21.10;9.60;;;;;;;40.55;35.00;101017.22;5053464;28;20489;-69
2022/09/26 05:51:09;;;;;;;18.53;7.53;;;;;;;40.02;35.93;101023.69;5053400;28;20430;-68
2022/09/26 05:53:36;;;;;;;14.47;7.53;;;;;;;40.43;35.38;101026.00;5053297;28;20481;-69
2022/09/26 05:56:03;;;;;;;30.20;12.03;;;;;;;40.69;35.50;101019.78;5053203;28;20494;-70
2022/09/26 05:58:34;;;;;;;19.00;9.63;;;;;;;40.51;35.35;101030.66;5054807;28;20403;-69
2022/09/26 06:01:01;;;;;;;13.67;8.43;;;;;;;40.55;35.45;101044.41;5049664;28;20430;-71
2022/09/26 06:03:33;;;;;;;22.63;8.63;;;;;;;40.79;34.90;101038.50;5046126;28;20541;-73
2022/09/26 06:06:10;;;;;;;18.53;10.27;;;;;;;40.49;35.74;101043.78;5043858;28;21118;-72
2022/09/26 06:08:37;;;;;;;19.43;8.07;;;;;;;40.19;36.35;101047.41;5043113;28;20411;-71
2022/09/26 06:11:09;;;;;;;25.13;8.43;;;;;;;40.50;35.69;101052.72;5043773;28;20517;-70
2022/09/26 06:13:35;;;;;;;29.70;11.27;;;;;;;40.18;36.27;101054.75;5049580;28;20921;-74
2022/09/26 06:16:06;;;;;;;30.60;11.30;;;;;;;40.75;35.43;101060.06;5033176;28;20459;-69
2022/09/26 06:18:33;;;;;;;18.23;9.87;;;;;;;40.92;34.64;101067.47;5032868;28;20494;-70
2022/09/26 06:21:08;;;;;;;35.93;21.53;;;;;;;40.65;35.65;101060.44;5032781;28;20412;-70
2022/09/26 06:23:35;;;;;;;79.40;51.73;;;;;;;40.46;36.04;101076.22;5032891;28;20419;-69
2022/09/26 06:26:02;;;;;;;129.10;94.70;;;;;;;41.08;34.65;101070.50;5035166;28;20489;-71
2022/09/26 06:28:29;;;;;;;193.73;150.30;;;;;;;41.16;34.93;101077.81;5040668;28;20771;-71
2022/09/26 06:30:56;;;;;;;200.87;133.40;;;;;;;40.71;35.35;101080.91;5034307;28;20886;-72
2022/09/26 06:33:23;;;;;;;92.63;57.57;;;;;;;40.98;35.07;101068.09;5034479;28;20425;-69
2022/09/26 06:36:03;;;;;;;57.63;35.40;;;;;;;40.95;35.38;101074.19;5027156;28;20454;-69
2022/09/26 06:38:29;;;;;;;124.23;59.07;;;;;;;40.28;36.46;101078.13;5043840;28;20457;-70
2022/09/26 06:40:57;;;;;;;135.73;77.43;;;;;;;40.92;35.53;101075.63;5059704;28;20469;-70
2022/09/26 06:43:23;;;;;;;156.17;85.13;;;;;;;40.95;34.95;101076.91;5071448;28;20455;-71
2022/09/26 06:45:50;;;;;;;116.20;58.70;;;;;;;40.99;35.59;101075.94;5050958;28;20491;-76
2022/09/26 06:48:16;;;;;;;85.60;42.50;;;;;;;40.93;34.84;101084.59;5053704;28;20422;-78
2022/09/26 06:50:42;;;;;;;119.33;65.80;;;;;;;40.83;35.62;101085.69;5053741;28;20778;-76
2022/09/26 06:53:09;;;;;;;44.07;24.13;;;;;;;41.10;34.56;101083.75;5071761;28;20528;-69
2022/09/26 06:55:35;;;;;;;85.03;39.70;;;;;;;41.37;34.82;101083.41;5053951;28;20466;-72
2022/09/26 06:58:01;;;;;;;71.27;35.27;;;;;;;41.33;34.72;101082.47;5053904;28;20817;-70
2022/09/26 07:00:34;;;;;;;40.43;14.20;;;;;;;41.09;34.93;101085.69;5054341;28;20851;-69
2022/09/26 07:03:00;;;;;;;34.67;11.40;;;;;;;40.64;36.31;101094.19;5053983;28;20430;-72
2022/09/26 07:05:27;;;;;;;24.87;9.10;;;;;;;41.19;35.17;101089.97;5053696;28;20438;-70
2022/09/26 07:07:54;;;;;;;25.67;9.70;;;;;;;41.27;34.97;101092.69;5053771;28;20421;-68
2022/09/26 07:10:20;;;;;;;24.57;8.60;;;;;;;40.94;35.43;101094.34;5053692;28;20441;-69
2022/09/26 07:12:47;;;;;;;17.93;10.27;;;;;;;41.06;35.42;101099.94;5071603;28;20421;-69
2022/09/26 07:15:19;;;;;;;35.60;11.90;;;;;;;40.59;36.06;101105.22;5030121;28;20450;-72
2022/09/26 07:17:49;;;;;;;37.23;17.53;;;;;;;40.76;35.52;101110.66;5037203;28;20433;-70
2022/09/26 07:20:19;;;;;;;39.20;16.30;;;;;;;40.38;35.84;101113.13;5053609;28;20847;-69
2022/09/26 07:22:46;;;;;;;36.00;17.37;;;;;;;40.04;35.74;101122.03;5071458;28;20417;-68
2022/09/26 07:25:12;;;;;;;22.63;10.60;;;;;;;39.63;37.07;101128.53;5053279;28;20414;-69
2022/09/26 07:27:39;;;;;;;15.80;8.57;;;;;;;39.31;37.28;101137.72;5053462;28;20790;-70
2022/09/26 07:30:08;;;;;;;27.40;13.47;;;;;;;39.27;37.38;101138.66;5054394;28;20985;-71
2022/09/26 07:32:38;;;;;;;39.63;14.90;;;;;;;39.17;37.85;101156.78;5054882;28;20417;-71
2022/09/26 07:35:04;;;;;;;26.03;11.33;;;;;;;39.42;37.42;101157.28;5054563;28;20457;-69
2022/09/26 07:37:31;;;;;;;33.27;15.10;;;;;;;39.29;37.52;101149.97;5054807;28;20512;-69
2022/09/26 07:39:57;;;;;;;39.23;13.03;;;;;;;39.07;37.65;101154.28;5054565;28;20799;-71
2022/09/26 07:42:23;;;;;;;35.37;16.47;;;;;;;39.09;38.08;101153.97;5072933;28;20464;-70
2022/09/26 07:44:49;;;;;;;26.93;10.27;;;;;;;39.46;37.39;101152.81;5038015;28;20509;-69
2022/09/26 07:50:13;;;;;;;36.67;12.83;;;;;;;39.31;37.73;101164.88;5070966;28;20397;-70
2022/09/26 07:52:47;;;;;;;33.60;9.83;;;;;;;39.55;37.46;101161.84;5054381;28;20394;-70
2022/09/26 07:55:19;;;;;;;24.80;11.17;;;;;;;39.20;37.77;101168.94;5052987;28;20506;-70
2022/09/26 07:57:48;;;;;;;19.60;9.87;;;;;;;40.01;36.30;101158.72;5052804;28;20442;-70
2022/09/26 08:00:17;;;;;;;34.67;9.40;;;;;;;40.16;35.87;101162.97;5052835;28;20547;-70
2022/09/26 08:02:45;;;;;;;27.20;9.73;;;;;;;39.67;36.72;101167.53;5054052;28;20398;-71
2022/09/26 08:05:18;;;;;;;46.00;11.87;;;;;;;40.11;35.93;101174.00;5054391;28;20417;-71
2022/09/26 08:07:46;;;;;;;27.70;7.30;;;;;;;40.14;36.10;101178.78;5054436;28;20429;-71
2022/09/26 08:10:20;;;;;;;28.00;8.67;;;;;;;39.96;36.35;101190.66;5054473;28;20438;-71
2022/09/26 08:12:47;;;;;;;55.43;15.13;;;;;;;39.70;36.48;101187.81;5054395;28;20435;-69
2022/09/26 08:15:14;;;;;;;38.77;19.30;;;;;;;39.92;36.05;101193.22;5072765;28;20514;-69
2022/09/26 08:17:41;;;;;;;29.97;11.17;;;;;;;39.59;36.18;101191.88;5054191;28;20414;-70
2022/09/26 08:20:08;;;;;;;40.23;15.80;;;;;;;39.14;37.49;101197.25;5054311;28;20515;-69
2022/09/26 08:22:34;;;;;;;38.70;13.87;;;;;;;39.00;37.72;101205.44;5054379;28;20418;-71
2022/09/26 08:25:01;;;;;;;47.47;17.43;;;;;;;39.15;37.22;101209.72;5054072;28;20491;-71
2022/09/26 08:27:32;;;;;;;26.50;12.10;;;;;;;39.18;36.87;101215.38;5072706;28;20390;-71
2022/09/26 08:29:58;;;;;;;26.07;9.30;;;;;;;39.56;35.98;101217.72;5054256;28;20509;-69
2022/09/26 08:32:24;;;;;;;32.50;13.77;;;;;;;39.41;36.87;101218.09;5054001;28;20417;-69
2022/09/26 08:34:52;;;;;;;36.70;15.87;;;;;;;38.74;38.50;101221.47;5054119;28;20429;-69
2022/09/26 08:37:19;;;;;;;35.97;11.60;;;;;;;39.31;37.49;101218.34;5072465;28;20398;-69
2022/09/26 08:39:46;;;;;;;37.63;17.50;;;;;;;39.18;37.37;101215.38;5054265;28;20414;-69
2022/09/26 08:42:44;;;;;;;60.20;27.17;;;;;;;39.30;37.39;101214.84;5052342;28;20434;-70
2022/09/26 08:48:30;;;;;;;33.10;11.80;;;;;;;39.17;38.26;101192.06;5052137;28;20457;-71
2022/09/26 08:51:16;;;;;;;26.20;11.93;;;;;;;38.58;39.45;101212.00;5050766;28;20433;-71
2022/09/26 08:53:51;;;;;;;34.27;12.00;;;;;;;39.64;37.75;101230.59;5050687;28;20434;-70
2022/09/26 08:56:30;;;;;;;40.77;14.40;;;;;;;40.24;37.35;101213.03;5050578;28;20470;-69
2022/09/26 08:59:00;;;;;;;25.03;9.20;;;;;;;40.17;37.36;101213.50;5050731;28;20426;-69
2022/09/26 09:01:29;;;;;;;32.43;11.23;;;;;;;40.43;37.19;101212.78;5050725;28;20434;-69
2022/09/26 09:04:06;;;;;;;26.13;10.47;;;;;;;40.57;37.18;101199.09;5050782;28;20447;-70
2022/09/26 09:06:34;;;;;;;18.83;8.33;;;;;;;40.14;38.10;101199.72;5055957;28;20398;-69
2022/09/26 09:09:00;;;;;;;19.50;7.43;;;;;;;39.55;38.93;101213.41;5054183;28;20442;-70
2022/09/26 09:11:56;;;;;;;11.90;6.30;;;;;;;39.61;38.75;101203.25;5054092;28;20411;-70
2022/09/26 09:14:39;;;;;;;16.87;9.53;;;;;;;39.66;38.35;101197.72;5054173;28;20483;-70
2022/09/26 09:17:13;;;;;;;16.03;6.20;;;;;;;39.38;39.29;101200.50;5053960;28;20480;-71
2022/09/26 09:19:58;;;;;;;8.90;6.00;;;;;;;39.90;37.89;101181.03;5054052;28;20418;-71
2022/09/26 09:23:07;;;;;;;13.93;6.33;;;;;;;40.29;37.58;101177.56;5054025;28;20460;-71
2022/09/26 09:26:04;;;;;;;14.60;7.40;;;;;;;40.55;36.75;101185.81;5008242;28;20462;-70
2022/09/26 09:28:45;;;;;;;22.43;7.70;;;;;;;40.21;37.49;101186.50;5055606;28;20390;-70
2022/09/26 09:31:14;;;;;;;16.73;7.23;;;;;;;40.59;36.61;101181.34;5053708;28;20438;-69
2022/09/26 09:33:47;;;;;;;13.47;8.53;;;;;;;40.18;36.72;101190.63;5055030;28;20403;-69
2022/09/26 09:36:22;;;;;;;20.43;7.20;;;;;;;40.36;37.00;101190.69;5053620;28;20458;-70
2022/09/26 09:38:49;;;;;;;24.37;10.07;;;;;;;40.25;36.72;101193.69;5053727;28;20516;-70
2022/09/26 09:41:30;;;;;;;20.13;8.70;;;;;;;40.41;36.78;101193.28;5067067;28;20520;-69
2022/09/26 09:44:02;;;;;;;16.67;9.27;;;;;;;40.39;36.96;101187.34;5075116;28;20460;-70
2022/09/26 09:46:39;;;;;;;17.33;8.40;;;;;;;41.21;36.07;101194.69;5040694;28;20421;-70
2022/09/26 09:49:08;;;;;;;15.33;9.10;;;;;;;41.55;35.52;101198.50;5056847;28;20813;-70
2022/09/26 09:51:40;;;;;;;18.00;9.40;;;;;;;41.25;34.90;101206.56;5056729;28;20443;-71
2022/09/26 09:54:27;;;;;;;21.93;12.00;;;;;;;40.14;36.77;101216.81;5056816;28;20438;-71
2022/09/26 09:57:20;;;;;;;19.10;7.50;;;;;;;39.95;36.47;101221.66;5056485;28;20912;-71
2022/09/26 10:00:06;;;;;;;24.20;9.27;;;;;;;40.11;36.63;101230.25;5056568;28;20430;-69
2022/09/26 10:03:06;;;;;;;13.90;6.93;;;;;;;40.32;36.47;101234.00;5040428;28;20413;-70
2022/09/26 10:05:44;;;;;;;25.73;9.70;;;;;;;40.92;35.65;101227.97;5056432;28;20449;-70
2022/09/26 10:08:17;;;;;;;15.27;8.60;;;;;;;41.14;35.02;101235.22;5074863;28;20390;-69
2022/09/26 10:10:49;;;;;;;12.43;6.80;;;;;;;40.55;35.45;101227.41;5074591;28;20429;-70
2022/09/26 10:13:16;;;;;;;16.60;7.77;;;;;;;40.51;35.70;101233.78;5056402;28;20486;-70
2022/09/26 10:15:57;;;;;;;17.10;7.97;;;;;;;40.30;36.44;101241.69;5039480;28;20515;-70
2022/09/26 10:18:23;;;;;;;24.80;8.70;;;;;;;40.61;35.95;101238.13;5056223;28;20503;-68
2022/09/26 10:21:07;;;;;;;22.90;9.10;;;;;;;40.59;35.61;101246.63;5039598;28;20418;-74
2022/09/26 10:23:45;;;;;;;21.67;7.77;;;;;;;40.81;35.62;101234.81;5056177;28;20989;-70
2022/09/26 10:26:15;;;;;;;19.80;8.60;;;;;;;40.72;35.83;101239.44;5056064;28;20421;-69
2022/09/26 10:28:58;;;;;;;19.40;9.20;;;;;;;40.65;36.12;101234.47;5056149;28;20555;-71
2022/09/26 10:31:30;;;;;;;17.13;7.57;;;;;;;40.89;36.13;101217.72;5055953;28;20429;-71
2022/09/26 10:34:01;;;;;;;21.30;9.60;;;;;;;41.06;36.03;101206.84;5074188;28;20833;-71
2022/09/26 10:36:39;;;;;;;21.30;10.80;;;;;;;41.23;35.39;101199.81;5055833;28;20461;-71
2022/09/26 10:42:18;;;;;;;19.23;9.70;;;;;;;40.91;35.75;101190.22;5073563;28;20511;-69
2022/09/26 10:44:46;;;;;;;19.17;11.40;;;;;;;40.49;36.31;101195.25;5039336;28;20457;-71
2022/09/26 10:47:25;;;;;;;25.13;11.80;;;;;;;40.44;35.86;101189.91;5055743;28;20414;-71
2022/09/26 10:50:06;;;;;;;18.07;11.30;;;;;;;40.61;35.41;101184.53;5073904;28;20454;-76
2022/09/26 10:52:34;;;;;;;17.33;8.67;;;;;;;41.13;34.40;101184.63;5055590;28;20422;-77
2022/09/26 10:55:08;;;;;;;17.43;9.23;;;;;;;41.30;35.01;101176.41;5055376;28;20488;-77
2022/09/26 10:57:44;;;;;;;21.50;9.30;;;;;;;41.34;34.66;101163.00;5073756;28;20425;-76
2022/09/26 11:00:36;;;;;;;21.10;12.40;;;;;;;40.84;35.12;101159.94;5055515;28;20478;-77
2022/09/26 11:03:18;;;;;;;16.23;10.20;;;;;;;41.45;34.63;101158.81;5042110;28;20496;-74
2022/09/26 11:05:56;;;;;;;16.63;9.77;;;;;;;40.94;35.02;101171.31;5055241;28;20424;-75
2022/09/26 11:08:34;;;;;;;22.73;12.07;;;;;;;40.46;35.55;101171.38;5055285;28;20799;-74
2022/09/26 11:11:15;;;;;;;18.03;8.87;;;;;;;40.73;35.42;101179.28;5055134;28;20424;-74
2022/09/26 11:13:48;;;;;;;18.40;11.13;;;;;;;40.68;35.47;101173.19;5073465;28;20401;-73
2022/09/26 11:16:18;;;;;;;17.20;9.80;;;;;;;40.72;36.00;101180.41;5054952;28;20461;-72
2022/09/26 11:19:13;;;;;;;22.23;12.20;;;;;;;40.75;36.03;101179.75;5071185;28;20919;-72
2022/09/26 11:21:48;;;;;;;17.40;10.93;;;;;;;40.61;35.88;101183.75;5071054;28;20425;-74
2022/09/26 11:25:02;;;;;;;22.90;11.40;;;;;;;40.93;35.27;101180.59;5070847;28;20512;-72
2022/09/26 11:27:53;;;;;;;26.70;11.23;;;;;;;40.85;35.34;101175.13;5070111;28;20474;-71
2022/09/26 11:30:21;;;;;;;25.10;11.77;;;;;;;40.73;35.38;101173.84;5053469;28;20909;-71
2022/09/26 11:32:54;;;;;;;26.03;11.57;;;;;;;40.80;34.96;101170.66;5053881;28;20865;-71
2022/09/26 11:35:33;;;;;;;18.77;11.53;;;;;;;40.39;36.03;101171.84;5053813;28;20464;-71
2022/09/26 11:38:27;;;;;;;15.00;9.40;;;;;;;40.39;35.65;101174.56;5070958;28;20432;-71
2022/09/26 11:41:01;;;;;;;26.20;12.40;;;;;;;40.79;35.25;101167.13;5070677;28;20481;-71
2022/09/26 11:43:45;;;;;;;20.87;8.70;;;;;;;40.65;35.47;101165.69;5070659;28;20434;-71
2022/09/26 11:46:37;;;;;;;22.13;9.77;;;;;;;40.63;35.64;101165.97;5070509;28;20453;-71
2022/09/26 11:49:17;;;;;;;18.60;6.47;;;;;;;40.66;35.73;101170.00;5070578;28;20828;-72
2022/09/26 11:52:00;;;;;;;34.17;12.23;;;;;;;40.18;37.16;101170.81;5070619;28;20413;-72